createdAt,value
2019-01-11T00:01:26.499Z,9.27
2019-01-11T00:03:54.370Z,7.33
2019-01-11T00:06:21.958Z,7.70
2019-01-11T00:08:49.721Z,7.23
2019-01-11T00:11:17.331Z,7.97
2019-01-11T00:13:44.920Z,9.23
2019-01-11T00:16:12.844Z,8.03
2019-01-11T00:18:40.347Z,7.57
2019-01-11T00:21:08.124Z,7.00
2019-01-11T00:23:35.859Z,8.07
2019-01-11T00:26:03.478Z,8.37
2019-01-11T00:28:31.182Z,6.87
2019-01-11T00:30:58.877Z,5.93
2019-01-11T00:33:26.533Z,6.23
2019-01-11T00:35:54.067Z,8.33
2019-01-11T00:38:21.872Z,6.90
2019-01-11T00:40:49.569Z,7.20
2019-01-11T00:43:17.224Z,5.60
2019-01-11T00:45:44.739Z,7.63
2019-01-11T00:48:12.343Z,7.00
2019-01-11T00:50:40.105Z,8.90
2019-01-11T00:53:07.753Z,8.27
2019-01-11T00:55:35.344Z,5.93
2019-01-11T00:58:02.919Z,8.77
2019-01-11T01:00:30.554Z,6.07
2019-01-11T01:02:58.057Z,7.70
2019-01-11T01:05:25.641Z,6.17
2019-01-11T01:07:53.649Z,7.27
2019-01-11T01:10:22.425Z,8.63
2019-01-11T01:12:49.986Z,8.93
2019-01-11T01:15:18.138Z,8.17
2019-01-11T01:17:45.652Z,6.30
2019-01-11T01:20:13.382Z,6.33
2019-01-11T01:22:41.045Z,7.77
2019-01-11T01:25:11.547Z,9.53
2019-01-11T01:27:39.454Z,7.77
2019-01-11T01:30:10.534Z,5.30
2019-01-11T01:32:38.021Z,8.07
2019-01-11T01:35:05.802Z,7.07
2019-01-11T01:37:36.234Z,9.13
2019-01-11T01:40:05.239Z,10.00
2019-01-11T01:42:32.889Z,7.37
2019-01-11T01:45:00.507Z,7.40
2019-01-11T01:47:28.040Z,8.13
2019-01-11T01:49:55.683Z,8.03
2019-01-11T01:52:23.430Z,6.23
2019-01-11T01:54:51.159Z,6.47
2019-01-11T01:57:18.614Z,6.50
2019-01-11T01:59:51.182Z,5.83
2019-01-11T02:02:21.562Z,6.50
2019-01-11T02:04:49.204Z,6.43
2019-01-11T02:07:16.838Z,6.63
2019-01-11T02:09:44.338Z,7.37
2019-01-11T02:12:14.226Z,7.53
2019-01-11T02:14:42.303Z,7.37
2019-01-11T02:17:10.520Z,9.07
2019-01-11T02:19:38.140Z,6.40
2019-01-11T02:22:05.594Z,6.47
2019-01-11T02:24:33.135Z,5.90
2019-01-11T02:27:00.618Z,8.33
2019-01-11T02:29:28.124Z,7.63
2019-01-11T02:31:55.636Z,8.83
2019-01-11T02:34:23.441Z,8.03
2019-01-11T02:36:50.911Z,6.87
2019-01-11T02:39:18.420Z,6.93
2019-01-11T02:41:45.960Z,7.83
2019-01-11T02:44:13.452Z,8.70
2019-01-11T02:46:40.937Z,8.07
2019-01-11T02:49:08.404Z,8.63
2019-01-11T02:51:36.049Z,7.53
2019-01-11T02:54:03.542Z,8.33
2019-01-11T02:56:31.025Z,6.87
2019-01-11T02:58:58.603Z,7.63
2019-01-11T03:01:26.122Z,8.87
2019-01-11T03:03:53.652Z,7.97
2019-01-11T03:06:21.130Z,10.93
2019-01-11T03:08:48.667Z,8.63
2019-01-11T03:11:16.184Z,7.43
2019-01-11T03:13:43.749Z,10.07
2019-01-11T03:16:11.363Z,8.20
2019-01-11T03:18:38.858Z,8.93
2019-01-11T03:21:07.324Z,10.50
2019-01-11T03:23:34.793Z,10.77
2019-01-11T03:26:02.411Z,10.03
2019-01-11T03:28:29.883Z,9.67
2019-01-11T03:30:59.151Z,11.73
2019-01-11T03:33:26.607Z,10.40
2019-01-11T03:35:54.238Z,9.17
2019-01-11T03:38:21.934Z,11.83
2019-01-11T03:40:49.421Z,8.90
2019-01-11T03:43:17.119Z,9.27
2019-01-11T03:45:44.677Z,11.17
2019-01-11T03:48:12.285Z,8.07
2019-01-11T03:50:40.038Z,9.57
2019-01-11T03:53:07.659Z,8.30
2019-01-11T03:55:35.126Z,12.30
2019-01-11T03:58:02.614Z,10.60
2019-01-11T04:00:30.082Z,11.17
2019-01-11T04:02:57.662Z,9.60
2019-01-11T04:05:25.133Z,9.93
2019-01-11T04:07:52.864Z,14.13
2019-01-11T04:10:24.327Z,11.23
2019-01-11T04:12:51.873Z,8.03
2019-01-11T04:15:20.542Z,9.00
2019-01-11T04:18:05.183Z,8.20
2019-01-11T04:20:32.692Z,9.57
2019-01-11T04:23:00.467Z,9.27
2019-01-11T04:25:33.595Z,9.13
2019-01-11T04:28:01.210Z,9.13
2019-01-11T04:30:28.752Z,7.93
2019-01-11T04:32:56.221Z,9.83
2019-01-11T04:35:23.968Z,9.23
2019-01-11T04:37:52.084Z,9.03
2019-01-11T04:40:19.744Z,11.50
2019-01-11T04:42:47.451Z,9.47
2019-01-11T04:45:15.163Z,9.07
2019-01-11T04:47:42.669Z,12.40
2019-01-11T04:50:13.161Z,10.50
2019-01-11T04:52:40.656Z,8.20
2019-01-11T04:55:08.341Z,9.40
2019-01-11T04:57:36.326Z,9.60
2019-01-11T05:00:07.363Z,10.17
2019-01-11T05:02:34.824Z,10.43
2019-01-11T05:05:02.362Z,8.60
2019-01-11T05:07:29.820Z,9.97
2019-01-11T05:09:57.289Z,8.67
2019-01-11T05:12:24.844Z,9.77
2019-01-11T05:14:52.312Z,9.77
2019-01-11T05:17:19.820Z,8.83
2019-01-11T05:19:47.319Z,9.83
2019-01-11T05:22:14.812Z,9.20
2019-01-11T05:24:42.601Z,9.63
2019-01-11T05:27:10.079Z,8.43
2019-01-11T05:29:37.532Z,7.20
2019-01-11T05:32:05.033Z,7.97
2019-01-11T05:34:32.482Z,7.13
2019-01-11T05:36:59.956Z,8.30
2019-01-11T05:39:27.457Z,8.87
2019-01-11T05:41:54.944Z,8.40
2019-01-11T05:44:22.440Z,8.33
2019-01-11T05:46:49.924Z,10.70
2019-01-11T05:49:17.382Z,10.53
2019-01-11T05:51:44.864Z,6.27
2019-01-11T05:54:12.364Z,8.83
2019-01-11T05:56:39.841Z,10.37
2019-01-11T05:59:08.246Z,9.53
2019-01-11T06:01:35.738Z,9.20
2019-01-11T06:04:14.212Z,10.47
2019-01-11T06:06:59.698Z,9.10
2019-01-11T06:09:27.195Z,8.43
2019-01-11T06:11:54.679Z,9.47
2019-01-11T06:14:22.106Z,10.13
2019-01-11T06:16:49.599Z,11.50
2019-01-11T06:19:17.104Z,8.17
2019-01-11T06:21:44.617Z,8.37
2019-01-11T06:24:12.169Z,12.80
2019-01-11T06:26:40.440Z,11.20
2019-01-11T06:29:07.903Z,9.33
2019-01-11T06:31:35.415Z,9.70
2019-01-11T06:34:03.008Z,8.07
2019-01-11T06:36:30.480Z,8.63
2019-01-11T06:38:57.960Z,8.83
2019-01-11T06:41:29.882Z,8.07
2019-01-11T06:43:57.368Z,8.87
2019-01-11T06:46:25.675Z,9.27
2019-01-11T06:48:53.161Z,34.63
2019-01-11T06:51:20.656Z,10.20
2019-01-11T06:53:48.145Z,6.60
2019-01-11T06:56:15.673Z,10.10
2019-01-11T06:58:43.201Z,7.50
2019-01-11T07:01:10.657Z,9.23
2019-01-11T07:03:38.238Z,9.20
2019-01-11T07:06:05.730Z,8.63
2019-01-11T07:08:33.207Z,8.13
2019-01-11T07:11:00.702Z,10.00
2019-01-11T07:13:28.415Z,14.13
2019-01-11T07:15:55.903Z,9.77
2019-01-11T07:18:23.467Z,10.23
2019-01-11T07:20:50.954Z,10.43
2019-01-11T07:23:18.392Z,10.50
2019-01-11T07:25:45.902Z,8.83
2019-01-11T07:28:13.715Z,9.27
2019-01-11T07:31:03.448Z,9.50
2019-01-11T07:33:30.936Z,9.40
2019-01-11T07:36:17.268Z,12.97
2019-01-11T07:38:44.761Z,12.40
2019-01-11T07:41:12.205Z,7.20
2019-01-11T07:43:39.663Z,8.23
2019-01-11T07:46:07.151Z,8.97
2019-01-11T07:48:34.862Z,7.40
2019-01-11T07:51:02.316Z,9.07
2019-01-11T07:53:29.822Z,10.50
2019-01-11T07:55:57.317Z,8.03
2019-01-11T07:58:24.816Z,8.57
2019-01-11T08:00:52.341Z,7.87
2019-01-11T08:03:19.819Z,9.80
2019-01-11T08:05:47.310Z,7.93
2019-01-11T08:08:14.790Z,8.27
2019-01-11T08:10:42.314Z,9.03
2019-01-11T08:13:09.780Z,11.50
2019-01-11T08:15:37.389Z,9.43
2019-01-11T08:18:04.846Z,9.13
2019-01-11T08:20:32.361Z,15.30
2019-01-11T08:22:59.854Z,10.13
2019-01-11T08:25:27.364Z,10.10
2019-01-11T08:27:54.887Z,9.33
2019-01-11T08:30:22.350Z,8.37
2019-01-11T08:32:49.822Z,9.67
2019-01-11T08:35:17.716Z,8.60
2019-01-11T08:37:46.305Z,9.47
2019-01-11T08:40:13.768Z,10.70
2019-01-11T08:42:41.241Z,7.90
2019-01-11T08:45:09.901Z,8.77
2019-01-11T08:47:37.421Z,6.20
2019-01-11T08:50:09.521Z,7.97
2019-01-11T08:52:36.969Z,10.50
2019-01-11T08:55:04.681Z,8.10
2019-01-11T08:57:32.157Z,8.13
2019-01-11T08:59:59.671Z,6.23
2019-01-11T09:02:27.162Z,8.20
2019-01-11T09:04:54.663Z,6.40
2019-01-11T09:07:22.139Z,8.43
2019-01-11T09:09:49.591Z,6.73
2019-01-11T09:12:17.159Z,5.50
2019-01-11T09:14:49.032Z,5.93
2019-01-11T09:17:17.835Z,5.73
2019-01-11T09:19:45.305Z,7.77
2019-01-11T09:22:12.783Z,7.67
2019-01-11T09:24:40.314Z,5.53
2019-01-11T09:27:07.796Z,8.07
2019-01-11T09:29:35.895Z,7.07
2019-01-11T09:32:03.582Z,5.80
2019-01-11T09:34:31.047Z,5.00
2019-01-11T09:36:58.530Z,7.70
2019-01-11T09:39:26.065Z,6.70
2019-01-11T09:41:53.575Z,6.83
2019-01-11T09:44:21.044Z,6.70
2019-01-11T09:46:48.796Z,7.43
2019-01-11T09:49:16.390Z,9.93
2019-01-11T09:51:45.658Z,6.77
2019-01-11T09:54:13.481Z,7.97
2019-01-11T09:56:40.943Z,7.57
2019-01-11T09:59:08.432Z,7.10
2019-01-11T10:01:35.930Z,8.53
2019-01-11T10:04:03.387Z,10.23
2019-01-11T10:06:32.686Z,7.90
2019-01-11T10:09:00.163Z,6.97
2019-01-11T10:11:27.615Z,13.33
2019-01-11T10:13:55.112Z,9.63
2019-01-11T10:16:23.733Z,8.60
2019-01-11T10:18:51.396Z,8.30
2019-01-11T10:21:22.296Z,7.93
2019-01-11T10:23:48.183Z,6.33
2019-01-11T10:26:15.642Z,10.53
2019-01-11T10:28:43.112Z,12.20
2019-01-11T10:31:10.988Z,10.93
2019-01-11T10:33:38.461Z,13.20
2019-01-11T10:36:05.956Z,12.00
2019-01-11T10:38:33.768Z,12.33
2019-01-11T10:41:01.228Z,10.33
2019-01-11T10:43:28.716Z,16.57
2019-01-11T10:45:56.187Z,12.60
2019-01-11T10:48:23.695Z,14.20
2019-01-11T10:50:51.562Z,13.40
2019-01-11T10:53:19.024Z,14.67
2019-01-11T10:55:46.504Z,14.63
2019-01-11T10:58:14.010Z,15.30
2019-01-11T11:00:41.660Z,17.60
2019-01-11T11:03:09.151Z,15.37
2019-01-11T11:05:36.634Z,16.43
2019-01-11T11:08:04.199Z,16.90
2019-01-11T11:10:31.685Z,20.73
2019-01-11T11:12:59.178Z,15.13
2019-01-11T11:15:27.044Z,22.53
2019-01-11T11:17:54.496Z,20.77
2019-01-11T11:20:21.992Z,28.23
2019-01-11T11:22:49.621Z,20.43
2019-01-11T11:25:19.370Z,24.47
2019-01-11T11:27:46.864Z,18.50
2019-01-11T11:30:15.038Z,15.87
2019-01-11T11:33:02.618Z,21.83
2019-01-11T11:35:31.588Z,20.93
2019-01-11T11:37:59.029Z,21.90
2019-01-11T11:40:27.715Z,23.97
2019-01-11T11:42:55.194Z,24.13
2019-01-11T11:45:22.730Z,25.33
2019-01-11T11:47:50.205Z,26.13
2019-01-11T11:50:17.726Z,27.90
2019-01-11T11:52:45.264Z,28.27
2019-01-11T11:55:12.726Z,28.07
2019-01-11T11:57:40.184Z,28.17
2019-01-11T12:00:16.725Z,28.43
2019-01-11T12:02:44.179Z,28.90
2019-01-11T12:05:11.777Z,24.07
2019-01-11T12:07:39.266Z,24.47
2019-01-11T12:10:08.475Z,29.80
2019-01-11T12:12:35.956Z,26.03
2019-01-11T12:15:04.259Z,27.53
2019-01-11T12:17:31.719Z,26.43
2019-01-11T12:19:59.424Z,24.17
2019-01-11T12:22:27.115Z,25.77
2019-01-11T12:24:54.581Z,28.30
2019-01-11T12:27:22.105Z,26.67
2019-01-11T12:29:49.566Z,23.17
2019-01-11T12:32:19.662Z,24.83
2019-01-11T12:34:46.293Z,28.63
2019-01-11T12:37:17.742Z,27.93
2019-01-11T12:39:45.252Z,30.80
2019-01-11T12:42:13.361Z,26.00
2019-01-11T12:44:40.920Z,27.37
2019-01-11T12:47:08.410Z,29.33
2019-01-11T12:49:35.908Z,19.30
2019-01-11T12:52:03.608Z,24.93
2019-01-11T12:54:31.134Z,26.10
2019-01-11T12:56:58.657Z,28.10
2019-01-11T12:59:26.147Z,28.73
2019-01-11T13:01:53.675Z,33.57
2019-01-11T13:04:21.499Z,29.53
2019-01-11T13:06:50.175Z,28.47
2019-01-11T13:09:17.887Z,25.83
2019-01-11T13:11:45.315Z,27.43
2019-01-11T13:14:12.863Z,30.00
2019-01-11T13:16:40.409Z,32.60
2019-01-11T13:19:07.883Z,27.80
2019-01-11T13:21:36.164Z,29.33
2019-01-11T13:24:04.021Z,26.20
2019-01-11T13:26:31.672Z,32.87
2019-01-11T13:28:59.312Z,26.17
2019-01-11T13:31:26.783Z,24.20
2019-01-11T13:33:54.455Z,21.07
2019-01-11T13:36:23.080Z,27.07
2019-01-11T13:38:50.900Z,25.77
2019-01-11T13:41:18.477Z,28.33
2019-01-11T13:43:45.960Z,33.00
2019-01-11T13:46:13.627Z,31.40
2019-01-11T13:48:41.495Z,30.80
2019-01-11T13:54:49.060Z,26.67
2019-01-11T13:57:16.691Z,27.83
2019-01-11T13:59:45.042Z,21.50
2019-01-11T14:02:15.610Z,25.43
2019-01-11T14:04:44.644Z,28.30
2019-01-11T14:07:12.201Z,24.03
2019-01-11T14:09:39.717Z,25.17
2019-01-11T14:12:07.229Z,22.33
2019-01-11T14:14:34.744Z,24.40
2019-01-11T14:17:02.259Z,25.60
2019-01-11T14:19:29.756Z,24.10
2019-01-11T14:21:57.254Z,28.67
2019-01-11T14:24:24.754Z,23.10
2019-01-11T14:26:52.334Z,24.47
2019-01-11T14:29:19.849Z,22.03
2019-01-11T14:31:47.356Z,22.77
2019-01-11T14:34:14.845Z,22.80
2019-01-11T14:36:42.341Z,26.83
2019-01-11T14:39:09.834Z,21.67
2019-01-11T14:41:37.628Z,21.93
2019-01-11T14:44:05.212Z,19.93
2019-01-11T14:46:32.647Z,26.97
2019-01-11T14:49:00.180Z,12.43
2019-01-11T14:51:27.698Z,21.93
2019-01-11T14:53:55.227Z,19.10
2019-01-11T14:56:22.724Z,24.73
2019-01-11T14:58:50.614Z,20.80
2019-01-11T15:01:18.076Z,19.47
2019-01-11T15:03:45.560Z,19.60
2019-01-11T15:06:13.039Z,19.63
2019-01-11T15:08:40.504Z,20.30
2019-01-11T15:11:08.027Z,17.33
2019-01-11T15:13:35.529Z,18.40
2019-01-11T15:16:03.040Z,19.97
2019-01-11T15:18:30.555Z,22.37
2019-01-11T15:20:58.037Z,20.60
2019-01-11T15:23:25.517Z,21.47
2019-01-11T15:25:52.986Z,17.33
2019-01-11T15:28:20.720Z,20.87
2019-01-11T15:30:48.215Z,22.53
2019-01-11T15:33:15.718Z,16.77
2019-01-11T15:35:43.300Z,20.27
2019-01-11T15:38:11.139Z,20.83
2019-01-11T15:40:38.664Z,22.37
2019-01-11T15:43:06.134Z,21.73
2019-01-11T15:45:33.631Z,17.27
2019-01-11T15:48:01.093Z,19.90
2019-01-11T15:50:53.976Z,19.87
2019-01-11T15:53:21.528Z,14.90
2019-01-11T15:55:51.022Z,12.20
2019-01-11T15:58:18.442Z,13.40
2019-01-11T16:00:47.286Z,14.30
2019-01-11T16:03:15.249Z,11.20
2019-01-11T16:05:43.122Z,19.47
2019-01-11T16:08:10.611Z,15.27
2019-01-11T16:11:05.468Z,14.53
2019-01-11T16:14:17.947Z,15.50
2019-01-11T16:16:51.698Z,17.47
2019-01-11T16:19:19.240Z,15.07
2019-01-11T16:21:46.749Z,12.70
2019-01-11T16:24:14.234Z,13.27
2019-01-11T16:26:41.759Z,18.90
2019-01-11T16:29:09.216Z,27.07
2019-01-11T16:31:36.704Z,17.77
2019-01-11T16:34:04.190Z,16.30
2019-01-11T16:36:31.730Z,21.50
2019-01-11T16:38:59.312Z,17.50
2019-01-11T16:41:26.827Z,12.13
2019-01-11T16:43:54.307Z,12.90
2019-01-11T16:46:22.118Z,15.13
2019-01-11T16:48:49.610Z,14.70
2019-01-11T16:51:17.076Z,9.87
2019-01-11T16:53:44.570Z,13.87
2019-01-11T16:56:12.055Z,18.90
2019-01-11T16:58:39.544Z,20.67
2019-01-11T17:01:06.991Z,21.13
2019-01-11T17:03:34.584Z,26.60
2019-01-11T17:06:02.055Z,18.13
2019-01-11T17:08:29.539Z,20.23
2019-01-11T17:10:57.019Z,22.83
2019-01-11T17:13:24.488Z,23.97
2019-01-11T17:15:52.010Z,15.83
2019-01-11T17:18:19.674Z,13.43
2019-01-11T17:20:47.164Z,16.73
2019-01-11T17:23:14.652Z,18.87
2019-01-11T17:25:42.142Z,18.33
2019-01-11T17:28:09.670Z,19.47
2019-01-11T17:30:37.160Z,15.90
2019-01-11T17:33:04.660Z,15.10
2019-01-11T17:35:32.195Z,18.00
2019-01-11T17:37:59.695Z,7.87
2019-01-11T17:40:27.192Z,11.57
2019-01-11T17:42:54.738Z,17.03
2019-01-11T17:45:22.260Z,14.10
2019-01-11T17:47:49.795Z,13.80
2019-01-11T17:50:18.111Z,13.00
2019-01-11T17:52:45.784Z,15.90
2019-01-11T17:55:13.260Z,16.93
2019-01-11T17:57:40.856Z,14.80
2019-01-11T18:00:12.721Z,13.60
2019-01-11T18:02:40.251Z,16.03
2019-01-11T18:05:08.797Z,12.90
2019-01-11T18:07:36.274Z,13.10
2019-01-11T18:10:06.332Z,9.20
2019-01-11T18:12:33.816Z,12.37
2019-01-11T18:15:01.355Z,16.67
2019-01-11T18:17:28.796Z,17.53
2019-01-11T18:19:56.316Z,18.80
2019-01-11T18:22:23.774Z,17.63
2019-01-11T18:24:51.501Z,19.70
2019-01-11T18:27:19.016Z,11.43
2019-01-11T18:29:46.490Z,13.20
2019-01-11T18:32:14.027Z,12.90
2019-01-11T18:34:41.499Z,19.50
2019-01-11T18:37:08.972Z,18.30
2019-01-11T18:39:36.474Z,11.27
2019-01-11T18:42:04.356Z,14.03
2019-01-11T18:44:31.826Z,12.20
2019-01-11T18:46:59.330Z,14.47
2019-01-11T18:49:26.808Z,14.13
2019-01-11T18:51:54.347Z,19.10
2019-01-11T18:54:21.812Z,12.23
2019-01-11T18:56:49.322Z,17.40
2019-01-11T18:59:16.867Z,16.70
2019-01-11T19:01:44.358Z,13.13
2019-01-11T19:04:12.147Z,12.53
2019-01-11T19:06:39.751Z,12.63
2019-01-11T19:09:07.813Z,23.97
2019-01-11T19:11:35.324Z,21.53
2019-01-11T19:14:02.811Z,11.27
2019-01-11T19:16:30.311Z,27.47
2019-01-11T19:18:57.794Z,18.27
2019-01-11T19:21:25.537Z,16.20
2019-01-11T19:23:53.038Z,12.37
2019-01-11T19:26:20.515Z,9.80
2019-01-11T19:28:48.058Z,22.80
2019-01-11T19:31:15.590Z,13.23
2019-01-11T19:33:43.047Z,16.30
2019-01-11T19:36:10.767Z,22.07
2019-01-11T19:38:38.244Z,12.33
2019-01-11T19:41:05.756Z,26.87
2019-01-11T19:43:33.298Z,16.73
2019-01-11T19:46:00.755Z,12.60
2019-01-11T19:48:28.317Z,17.13
2019-01-11T19:50:55.803Z,11.57
2019-01-11T19:53:27.387Z,17.90
2019-01-11T19:55:58.810Z,19.57
2019-01-11T19:58:22.213Z,14.67
2019-01-11T20:00:49.873Z,19.97
2019-01-11T20:03:17.443Z,11.50
2019-01-11T20:05:45.067Z,12.23
2019-01-11T20:08:12.582Z,14.87
2019-01-11T20:10:40.091Z,19.07
2019-01-11T20:13:07.560Z,14.03
2019-01-11T20:15:35.104Z,13.10
2019-01-11T20:18:02.672Z,23.53
2019-01-11T20:20:30.303Z,11.93
2019-01-11T20:23:02.149Z,21.73
2019-01-11T20:25:27.074Z,17.23
2019-01-11T20:27:54.691Z,18.43
2019-01-11T20:30:24.303Z,16.43
2019-01-11T20:32:51.827Z,17.23
2019-01-11T20:35:19.456Z,11.90
2019-01-11T20:37:47.275Z,10.83
2019-01-11T20:40:15.453Z,13.03
2019-01-11T20:42:43.053Z,24.93
2019-01-11T20:45:13.191Z,21.37
2019-01-11T20:47:40.686Z,15.57
2019-01-11T20:50:11.053Z,17.47
2019-01-11T20:52:38.731Z,15.63
2019-01-11T20:55:06.282Z,21.10
2019-01-11T20:57:33.805Z,16.23
2019-01-11T21:00:01.311Z,18.77
2019-01-11T21:02:28.811Z,14.97
2019-01-11T21:04:56.322Z,20.00
2019-01-11T21:07:24.101Z,12.90
2019-01-11T21:09:51.581Z,18.27
2019-01-11T21:12:19.082Z,18.53
2019-01-11T21:14:46.598Z,12.93
2019-01-11T21:17:14.140Z,19.07
2019-01-11T21:19:44.366Z,20.50
2019-01-11T21:22:11.856Z,18.50
2019-01-11T21:24:39.755Z,12.50
2019-01-11T21:27:07.252Z,17.53
2019-01-11T21:29:34.773Z,17.03
2019-01-11T21:32:02.309Z,13.83
2019-01-11T21:34:29.830Z,14.23
2019-01-11T21:36:57.429Z,17.03
2019-01-11T21:39:24.947Z,21.90
2019-01-11T21:41:52.423Z,24.03
2019-01-11T21:44:19.890Z,20.70
2019-01-11T21:46:47.479Z,22.83
2019-01-11T21:49:14.953Z,19.53
2019-01-11T21:51:42.519Z,21.60
2019-01-11T21:54:09.995Z,19.77
2019-01-11T21:56:37.501Z,26.10
2019-01-11T21:59:04.938Z,26.10
2019-01-11T22:01:32.456Z,30.13
2019-01-11T22:04:00.018Z,20.43
2019-01-11T22:06:27.504Z,27.57
2019-01-11T22:08:55.005Z,30.73
2019-01-11T22:11:22.500Z,27.73
2019-01-11T22:13:50.015Z,19.13
2019-01-11T22:16:17.520Z,25.43
2019-01-11T22:18:45.058Z,23.57
2019-01-11T22:21:12.559Z,30.70
2019-01-11T22:23:40.050Z,30.70
2019-01-11T22:26:07.496Z,25.53
2019-01-11T22:28:35.063Z,28.83
2019-01-11T22:31:02.748Z,28.37
2019-01-11T22:33:30.244Z,23.03
2019-01-11T22:35:57.741Z,22.43
2019-01-11T22:38:25.207Z,20.33
2019-01-11T22:40:52.674Z,26.70
2019-01-11T22:43:20.197Z,24.70
2019-01-11T22:45:47.840Z,29.20
2019-01-11T22:48:15.364Z,18.23
2019-01-11T22:50:42.849Z,27.27
2019-01-11T22:53:10.306Z,32.10
2019-01-11T22:55:37.788Z,27.33
2019-01-11T22:58:05.277Z,27.50
2019-01-11T23:01:38.933Z,30.10
2019-01-11T23:04:06.472Z,30.10
2019-01-11T23:07:04.583Z,27.10
2019-01-11T23:09:42.718Z,25.90
2019-01-11T23:12:42.276Z,28.93
2019-01-11T23:15:20.212Z,35.17
2019-01-11T23:17:51.455Z,25.17
2019-01-11T23:20:18.944Z,29.13
2019-01-11T23:22:46.409Z,33.43
2019-01-11T23:25:13.901Z,38.47
2019-01-11T23:27:41.404Z,34.33
2019-01-11T23:30:14.892Z,22.27
2019-01-11T23:32:42.330Z,20.67
2019-01-11T23:35:09.852Z,25.27
2019-01-11T23:37:37.344Z,26.00
2019-01-11T23:40:06.718Z,16.80
2019-01-11T23:42:34.199Z,34.23
2019-01-11T23:45:01.677Z,31.87
2019-01-11T23:47:29.190Z,25.37
2019-01-11T23:49:56.994Z,26.67
2019-01-11T23:52:29.517Z,19.70
2019-01-11T23:54:57.607Z,30.23
2019-01-11T23:57:25.085Z,26.00
2019-01-11T23:59:52.553Z,27.00
